Time;durP1;ratioP1;P1;durP2;ratioP2;P2;SDS_P1;SDS_P2;PMS_P1;PMS_P2;Temp;Humidity;BMP_temperature;BMP_pressure;BME280_temperature;BME280_humidity;BME280_pressure;Samples;Min_cycle;Max_cycle;Signal;HPM_P1;HPM_P2
2022/10/27 00:00:23;;;;;;;13.63;6.95;;;;;;;13.68;100.00;101824.41;5098153;28;20028;-81
2022/10/27 00:02:49;;;;;;;14.13;6.75;;;;;;;13.72;100.00;101831.41;5080844;28;20046;-81
2022/10/27 00:05:14;;;;;;;13.90;7.10;;;;;;;13.74;100.00;101823.91;5077892;28;20056;-81
2022/10/27 00:07:40;;;;;;;18.48;7.57;;;;;;;13.66;100.00;101823.63;5098287;28;20035;-81
2022/10/27 00:10:06;;;;;;;13.95;7.00;;;;;;;13.65;100.00;101828.25;5116666;28;20550;-81
2022/10/27 00:12:33;;;;;;;17.33;7.60;;;;;;;13.65;100.00;101833.78;5076826;28;20032;-81
2022/10/27 00:14:58;;;;;;;14.05;7.63;;;;;;;13.66;100.00;101827.28;5044866;28;20522;-81
2022/10/27 00:17:24;;;;;;;19.42;7.55;;;;;;;13.66;100.00;101840.13;5060036;28;20119;-81
2022/10/27 00:19:49;;;;;;;17.10;7.75;;;;;;;13.62;100.00;101835.88;5066680;28;20474;-81
2022/10/27 00:22:15;;;;;;;17.58;7.28;;;;;;;13.62;100.00;101831.25;5086648;28;20509;-81
2022/10/27 00:24:41;;;;;;;22.58;8.38;;;;;;;13.65;100.00;101832.91;5086198;28;20049;-82
2022/10/27 00:27:07;;;;;;;13.48;7.25;;;;;;;13.62;100.00;101841.38;5102342;28;20038;-82
2022/10/27 00:29:33;;;;;;;12.73;8.38;;;;;;;13.59;100.00;101832.38;5101381;28;20039;-81
2022/10/27 00:31:59;;;;;;;17.20;9.43;;;;;;;13.62;100.00;101834.00;5079019;28;20035;-81
2022/10/27 00:34:25;;;;;;;18.63;9.18;;;;;;;13.60;100.00;101842.38;5098017;28;20043;-81
2022/10/27 00:36:50;;;;;;;17.77;9.75;;;;;;;13.58;100.00;101841.63;5064296;28;20027;-81
2022/10/27 00:39:16;;;;;;;24.92;9.95;;;;;;;13.66;100.00;101842.91;5067378;28;20039;-80
2022/10/27 00:41:42;;;;;;;32.80;11.55;;;;;;;13.58;100.00;101827.00;5065931;28;20081;-81
2022/10/27 00:44:26;;;;;;;23.10;11.50;;;;;;;13.65;100.00;101844.78;5077515;28;20024;-81
2022/10/27 00:46:53;;;;;;;16.13;10.52;;;;;;;13.70;100.00;101844.44;5081189;28;20028;-81
2022/10/27 00:49:23;;;;;;;25.20;12.05;;;;;;;13.72;100.00;101845.19;5104218;28;20062;-81
2022/10/27 00:51:56;;;;;;;18.83;11.23;;;;;;;13.73;100.00;101839.56;5118633;28;20415;-81
2022/10/27 00:54:22;;;;;;;;;;;;;;;13.74;100.00;101852.34;5114510;28;20391;-81
2022/10/27 00:56:50;;;;;;;20.95;10.55;;;;;;;13.74;100.00;101851.44;5101399;28;19908;-80
2022/10/27 00:59:17;;;;;;;14.50;10.13;;;;;;;13.81;100.00;101862.84;5100228;28;20030;-81
2022/10/27 01:01:43;;;;;;;24.02;10.82;;;;;;;13.82;100.00;101862.75;5100308;28;20130;-81
2022/10/27 01:04:10;;;;;;;19.80;9.88;;;;;;;13.88;100.00;101864.16;5079313;28;20036;-81
2022/10/27 01:06:36;;;;;;;18.33;10.77;;;;;;;13.87;100.00;101852.28;5096964;28;20028;-80
2022/10/27 01:09:02;;;;;;;20.20;9.70;;;;;;;13.88;100.00;101855.91;5076044;28;20052;-80
2022/10/27 01:11:27;;;;;;;16.20;8.43;;;;;;;13.90;100.00;101867.66;5078110;28;20074;-80
2022/10/27 01:13:53;;;;;;;23.40;8.75;;;;;;;13.87;100.00;101849.53;5079629;28;20040;-79
2022/10/27 01:16:25;;;;;;;18.95;7.70;;;;;;;14.00;100.00;101857.69;5095828;28;20027;-81
2022/10/27 01:19:19;;;;;;;22.30;8.20;;;;;;;13.98;100.00;101865.19;5096439;28;20032;-80
2022/10/27 01:22:06;;;;;;;17.17;7.55;;;;;;;14.02;100.00;101863.06;5086817;28;20035;-80
2022/10/27 01:24:40;;;;;;;18.80;7.30;;;;;;;14.04;100.00;101861.09;5098416;28;20036;-81
2022/10/27 01:27:30;;;;;;;17.33;6.53;;;;;;;14.03;100.00;101865.72;5096685;28;20106;-81
2022/10/27 01:30:11;;;;;;;23.23;6.35;;;;;;;14.04;100.00;101870.25;5095833;28;20067;-81
2022/10/27 01:32:48;;;;;;;13.60;5.55;;;;;;;14.05;100.00;101865.59;5081371;28;20027;-81
2022/10/27 01:35:35;;;;;;;17.67;5.13;;;;;;;14.10;100.00;101867.00;5078843;28;20028;-80
2022/10/27 01:38:26;;;;;;;11.73;5.22;;;;;;;14.11;100.00;101867.88;5076063;28;20024;-80
2022/10/27 01:41:07;;;;;;;13.60;5.50;;;;;;;14.10;100.00;101867.00;5083103;28;20053;-81
2022/10/27 01:43:34;;;;;;;9.65;4.78;;;;;;;14.14;100.00;101873.16;5078849;28;20033;-81
2022/10/27 01:46:02;;;;;;;17.63;5.03;;;;;;;14.15;100.00;101872.16;5095330;28;20024;-81
2022/10/27 01:48:32;;;;;;;10.55;4.82;;;;;;;14.06;100.00;101862.72;5080179;28;20024;-81
2022/10/27 01:50:58;;;;;;;14.32;4.95;;;;;;;14.07;100.00;101864.50;5084779;28;20525;-81
2022/10/27 01:53:23;;;;;;;8.75;4.32;;;;;;;14.13;100.00;101863.13;5079015;28;20036;-81
2022/10/27 01:55:55;;;;;;;9.80;4.95;;;;;;;14.18;100.00;101866.41;5078637;28;20047;-82
2022/10/27 01:58:27;;;;;;;11.32;4.30;;;;;;;14.14;100.00;101863.00;5077138;28;20024;-81
2022/10/27 02:01:11;;;;;;;9.63;4.70;;;;;;;14.17;100.00;101872.91;5084203;28;20061;-81
2022/10/27 02:03:59;;;;;;;15.50;4.10;;;;;;;14.02;100.00;101871.34;5079104;28;20028;-81
2022/10/27 02:06:41;;;;;;;12.70;4.90;;;;;;;14.03;100.00;101867.59;5077303;28;20029;-81
2022/10/27 02:09:15;;;;;;;11.02;4.30;;;;;;;13.97;100.00;101863.47;5095975;28;20356;-81
2022/10/27 02:11:46;;;;;;;14.68;4.57;;;;;;;13.99;100.00;101869.72;5104401;28;20056;-81
2022/10/27 02:14:12;;;;;;;12.18;4.22;;;;;;;13.95;100.00;101857.16;5096279;28;20111;-81
2022/10/27 02:16:48;;;;;;;9.55;4.53;;;;;;;14.07;100.00;101866.34;5098889;28;20032;-81
2022/10/27 02:19:32;;;;;;;6.30;3.90;;;;;;;14.01;100.00;101853.94;5078551;28;20050;-81
2022/10/27 02:22:00;;;;;;;13.15;5.20;;;;;;;14.00;100.00;101851.31;5095279;28;20104;-81
2022/10/27 02:24:26;;;;;;;11.52;4.25;;;;;;;13.87;100.00;101845.88;5077852;28;20051;-81
2022/10/27 02:27:01;;;;;;;13.00;4.13;;;;;;;13.89;100.00;101855.78;5078964;28;20043;-81
2022/10/27 02:29:35;;;;;;;15.63;4.47;;;;;;;13.93;100.00;101854.53;5096334;28;20024;-81
2022/10/27 02:32:05;;;;;;;6.55;4.47;;;;;;;13.98;100.00;101859.69;5092898;28;20110;-81
2022/10/27 02:34:32;;;;;;;13.73;4.70;;;;;;;13.95;100.00;101852.56;5079005;28;20506;-81
2022/10/27 02:36:57;;;;;;;9.20;3.55;;;;;;;13.96;100.00;101854.31;5079184;28;20032;-81
2022/10/27 02:39:23;;;;;;;10.50;4.25;;;;;;;13.96;100.00;101842.41;5095638;28;20391;-81
2022/10/27 02:41:52;;;;;;;10.52;3.97;;;;;;;13.78;100.00;101825.44;5095265;28;20089;-81
2022/10/27 02:44:17;;;;;;;13.68;4.63;;;;;;;13.79;100.00;101836.34;5074675;28;20051;-81
2022/10/27 02:46:42;;;;;;;8.43;3.70;;;;;;;13.79;100.00;101840.97;5055913;28;20032;-81
2022/10/27 02:49:08;;;;;;;9.25;3.90;;;;;;;13.77;100.00;101851.22;5025753;28;20116;-81
2022/10/27 02:51:33;;;;;;;28.17;4.30;;;;;;;13.74;100.00;101843.19;5076525;28;20056;-81
2022/10/27 02:53:59;;;;;;;10.70;4.15;;;;;;;13.68;100.00;101836.28;5079300;28;20035;-81
2022/10/27 02:56:24;;;;;;;14.75;4.15;;;;;;;13.67;100.00;101839.16;5049026;28;20081;-81
2022/10/27 02:58:50;;;;;;;12.65;3.72;;;;;;;13.59;100.00;101831.47;5062454;28;20062;-81
2022/10/27 03:01:15;;;;;;;15.55;3.92;;;;;;;13.59;100.00;101835.13;5075534;28;20438;-81
2022/10/27 03:03:40;;;;;;;12.50;3.85;;;;;;;13.63;100.00;101830.25;5095669;28;20075;-81
2022/10/27 03:06:06;;;;;;;13.73;4.20;;;;;;;13.55;100.00;101836.34;5041483;28;20028;-81
2022/10/27 03:08:31;;;;;;;9.50;3.92;;;;;;;13.48;100.00;101824.06;5094760;28;20488;-81
2022/10/27 03:10:57;;;;;;;16.70;5.38;;;;;;;13.41;100.00;101826.41;5074280;28;20031;-81
2022/10/27 03:13:22;;;;;;;8.93;4.60;;;;;;;13.36;100.00;101825.88;5097960;28;20376;-81
2022/10/27 03:15:48;;;;;;;11.90;4.38;;;;;;;13.33;100.00;101827.94;5098446;28;20115;-81
2022/10/27 03:18:13;;;;;;;11.70;4.18;;;;;;;13.21;100.00;101815.97;5092008;28;20031;-80
2022/10/27 03:20:39;;;;;;;13.40;5.30;;;;;;;13.22;100.00;101820.50;5077693;28;20032;-81
2022/10/27 03:23:04;;;;;;;12.50;4.28;;;;;;;13.08;100.00;101806.88;5091961;28;20035;-81
2022/10/27 03:25:30;;;;;;;10.95;4.40;;;;;;;13.04;100.00;101807.13;5081215;28;20054;-81
2022/10/27 03:27:55;;;;;;;9.02;3.88;;;;;;;13.12;100.00;101809.31;5115632;28;20051;-80
2022/10/27 03:30:21;;;;;;;12.23;5.10;;;;;;;12.98;100.00;101801.19;5098281;28;20032;-80
2022/10/27 03:32:48;;;;;;;11.77;4.63;;;;;;;13.00;100.00;101800.09;5087631;28;20040;-80
2022/10/27 03:35:14;;;;;;;9.98;4.43;;;;;;;12.95;100.00;101804.16;5078373;28;20047;-81
2022/10/27 03:37:40;;;;;;;7.45;4.47;;;;;;;12.90;100.00;101817.38;5097070;28;20044;-81
2022/10/27 03:40:06;;;;;;;12.23;4.60;;;;;;;12.82;100.00;101813.34;5081091;28;20040;-81
2022/10/27 03:42:32;;;;;;;8.52;4.80;;;;;;;12.76;100.00;101816.53;5096376;28;20073;-81
2022/10/27 03:44:57;;;;;;;17.08;5.25;;;;;;;12.73;100.00;101802.13;5062501;28;20040;-81
2022/10/27 03:47:23;;;;;;;9.23;4.88;;;;;;;12.69;100.00;101805.09;5092400;28;20526;-81
2022/10/27 03:49:48;;;;;;;12.52;4.78;;;;;;;12.70;100.00;101808.72;5097885;28;20024;-81
2022/10/27 03:52:13;;;;;;;14.35;5.28;;;;;;;12.72;100.00;101809.47;5073474;28;20071;-81
2022/10/27 03:54:39;;;;;;;8.75;4.75;;;;;;;12.62;100.00;101808.41;5077219;28;20119;-81
2022/10/27 03:57:05;;;;;;;26.00;6.57;;;;;;;12.56;100.00;101793.25;5062397;28;20031;-81
2022/10/27 03:59:30;;;;;;;14.00;5.15;;;;;;;12.55;100.00;101812.59;5093776;28;20382;-82
2022/10/27 04:01:56;;;;;;;13.20;5.40;;;;;;;12.50;100.00;101800.06;5100822;28;20035;-81
2022/10/27 04:04:21;;;;;;;16.30;5.30;;;;;;;12.50;100.00;101801.94;5118150;28;20445;-80
2022/10/27 04:06:46;;;;;;;8.10;5.35;;;;;;;12.44;100.00;101808.72;5102312;28;20112;-80
2022/10/27 04:09:12;;;;;;;13.85;5.65;;;;;;;12.39;100.00;101810.94;5062847;28;20055;-80
2022/10/27 04:11:37;;;;;;;13.32;6.15;;;;;;;12.27;100.00;101798.09;5062741;28;20028;-80
2022/10/27 04:14:03;;;;;;;11.90;5.97;;;;;;;12.26;100.00;101804.56;5054179;28;20123;-80
2022/10/27 04:16:28;;;;;;;12.90;5.82;;;;;;;12.32;100.00;101802.25;5065852;28;20020;-79
2022/10/27 04:18:54;;;;;;;9.82;5.72;;;;;;;12.30;100.00;101804.22;5063757;28;20036;-80
2022/10/27 04:21:19;;;;;;;15.73;6.13;;;;;;;12.34;100.00;101815.88;5078116;28;20495;-80
2022/10/27 04:23:45;;;;;;;18.17;5.05;;;;;;;12.26;100.00;101805.44;5068876;28;20028;-79
2022/10/27 04:26:10;;;;;;;9.80;5.10;;;;;;;12.12;100.00;101802.81;5097757;28;20054;-81
2022/10/27 04:28:36;;;;;;;14.48;5.25;;;;;;;12.13;100.00;101802.69;5077790;28;20043;-82
2022/10/27 04:31:01;;;;;;;13.88;4.93;;;;;;;12.15;100.00;101805.34;5081069;28;20458;-80
2022/10/27 04:33:27;;;;;;;7.53;4.00;;;;;;;12.19;100.00;101803.25;5098819;28;20036;-80
2022/10/27 04:35:52;;;;;;;12.55;5.07;;;;;;;12.25;100.00;101805.56;5080482;28;20036;-80
2022/10/27 04:38:17;;;;;;;12.55;4.60;;;;;;;12.23;100.00;101802.94;5062520;28;20182;-81
2022/10/27 04:40:43;;;;;;;8.23;4.35;;;;;;;12.24;100.00;101803.78;5064278;28;20071;-82
2022/10/27 04:43:08;;;;;;;13.88;4.50;;;;;;;12.21;100.00;101802.13;5080564;28;20040;-82
2022/10/27 04:45:34;;;;;;;9.77;4.32;;;;;;;12.15;100.00;101808.09;5065421;28;20043;-81
2022/10/27 04:47:59;;;;;;;11.40;4.15;;;;;;;12.23;100.00;101811.16;5077150;28;20028;-81
2022/10/27 04:50:26;;;;;;;7.97;3.80;;;;;;;12.24;100.00;101815.66;5095158;28;20388;-81
2022/10/27 04:53:00;;;;;;;12.93;3.85;;;;;;;12.26;100.00;101815.53;5078934;28;20032;-82
2022/10/27 04:55:27;;;;;;;7.70;3.45;;;;;;;12.22;100.00;101814.88;5079910;28;20036;-79
2022/10/27 04:57:53;;;;;;;7.57;3.60;;;;;;;12.09;100.00;101811.25;5072631;28;20025;-81
2022/10/27 05:00:18;;;;;;;11.07;3.65;;;;;;;12.16;100.00;101814.44;5098007;28;20029;-80
2022/10/27 05:02:44;;;;;;;7.38;3.90;;;;;;;11.99;100.00;101810.16;5096970;28;20082;-80
2022/10/27 05:05:09;;;;;;;9.07;3.47;;;;;;;12.00;100.00;101810.00;5060757;28;20044;-81
2022/10/27 05:07:35;;;;;;;5.80;3.80;;;;;;;11.90;100.00;101811.63;5061212;28;20039;-81
2022/10/27 05:10:00;;;;;;;5.55;3.28;;;;;;;11.81;100.00;101823.25;5059436;28;20053;-80
2022/10/27 05:12:26;;;;;;;10.43;4.00;;;;;;;11.78;100.00;101825.19;5060808;28;20414;-80
2022/10/27 05:14:51;;;;;;;9.40;3.97;;;;;;;11.74;100.00;101809.94;5062921;28;20036;-80
2022/10/27 05:17:17;;;;;;;10.65;3.97;;;;;;;11.73;100.00;101821.88;5098135;28;20040;-81
2022/10/27 05:19:42;;;;;;;13.15;3.85;;;;;;;11.80;100.00;101818.72;5064078;28;20184;-81
2022/10/27 05:22:08;;;;;;;11.00;4.50;;;;;;;11.75;100.00;101824.53;5079096;28;20111;-80
2022/10/27 05:24:34;;;;;;;6.18;3.60;;;;;;;11.70;100.00;101824.84;5064335;28;20040;-80
2022/10/27 05:27:00;;;;;;;13.43;4.50;;;;;;;11.66;100.00;101817.81;5097859;28;20028;-80
2022/10/27 05:29:25;;;;;;;9.98;4.00;;;;;;;11.68;100.00;101801.25;5078775;28;20036;-80
2022/10/27 05:31:51;;;;;;;12.77;4.25;;;;;;;11.84;100.00;101815.69;5096060;28;20058;-80
2022/10/27 05:34:17;;;;;;;8.43;3.83;;;;;;;11.82;100.00;101814.88;5075798;28;20044;-80
2022/10/27 05:36:42;;;;;;;8.57;4.55;;;;;;;11.81;100.00;101820.50;5072554;28;20020;-80
2022/10/27 05:39:08;;;;;;;7.70;4.35;;;;;;;11.69;100.00;101812.13;5073983;28;20384;-80
2022/10/27 05:41:35;;;;;;;14.10;4.30;;;;;;;11.72;100.00;101808.28;5089716;28;20059;-80
2022/10/27 05:44:00;;;;;;;8.00;4.35;;;;;;;11.85;100.00;101813.81;5072869;28;20045;-79
2022/10/27 05:46:25;;;;;;;10.75;4.43;;;;;;;11.85;100.00;101817.41;5076250;28;20043;-80
2022/10/27 05:48:51;;;;;;;7.25;3.90;;;;;;;11.91;100.00;101814.28;5089301;28;20373;-80
2022/10/27 05:51:16;;;;;;;8.50;3.97;;;;;;;11.98;100.00;101803.75;5088632;28;20062;-80
2022/10/27 05:53:42;;;;;;;10.15;4.03;;;;;;;12.16;100.00;101817.19;5092685;28;20123;-80
2022/10/27 05:56:07;;;;;;;8.23;4.50;;;;;;;12.14;100.00;101818.16;5069993;28;20089;-80
2022/10/27 05:58:32;;;;;;;7.93;3.95;;;;;;;12.22;100.00;101803.03;5070866;28;20570;-80
2022/10/27 06:00:59;;;;;;;12.65;3.75;;;;;;;12.40;100.00;101809.09;5087052;28;20083;-79
2022/10/27 06:03:25;;;;;;;9.05;4.43;;;;;;;12.43;100.00;101812.47;5060482;28;20060;-80
2022/10/27 06:05:51;;;;;;;7.53;3.55;;;;;;;12.51;100.00;101809.19;5091645;28;20457;-79
2022/10/27 06:08:18;;;;;;;8.30;3.80;;;;;;;12.51;100.00;101809.19;5088251;28;20418;-79
2022/10/27 06:10:44;;;;;;;8.85;3.90;;;;;;;12.56;100.00;101819.81;5106546;28;20048;-81
2022/10/27 06:13:14;;;;;;;10.70;3.90;;;;;;;12.53;100.00;101814.53;5083971;28;20054;-79
2022/10/27 06:15:49;;;;;;;10.20;4.13;;;;;;;12.61;100.00;101820.38;5091120;28;20039;-80
2022/10/27 06:18:14;;;;;;;16.70;3.50;;;;;;;12.63;100.00;101813.78;5099163;28;20031;-82
2022/10/27 06:20:42;;;;;;;16.13;4.00;;;;;;;12.61;100.00;101802.03;5063974;28;20027;-79
2022/10/27 06:23:07;;;;;;;8.45;2.75;;;;;;;12.71;100.00;101805.00;5099330;28;20028;-80
2022/10/27 06:25:34;;;;;;;6.28;3.15;;;;;;;12.68;100.00;101802.47;5100851;28;20039;-79
2022/10/27 06:27:59;;;;;;;7.55;2.75;;;;;;;12.62;100.00;101802.91;5078138;28;20038;-79
2022/10/27 06:30:25;;;;;;;6.55;3.28;;;;;;;12.71;100.00;101804.09;5082553;28;20386;-79
2022/10/27 06:32:50;;;;;;;10.05;3.10;;;;;;;12.73;100.00;101799.38;5064624;28;20100;-79
2022/10/27 06:35:17;;;;;;;5.80;2.70;;;;;;;12.69;100.00;101784.97;5068708;28;20556;-78
2022/10/27 06:37:44;;;;;;;11.98;2.95;;;;;;;12.81;100.00;101800.56;5105553;28;20122;-79
2022/10/27 06:40:11;;;;;;;11.35;3.38;;;;;;;12.86;100.00;101805.72;5076453;28;20035;-79
2022/10/27 06:42:37;;;;;;;6.70;3.10;;;;;;;12.83;100.00;101797.72;5116656;28;20046;-80
2022/10/27 06:45:04;;;;;;;5.78;2.10;;;;;;;12.90;100.00;101799.00;5098868;28;20077;-80
2022/10/27 06:47:29;;;;;;;7.00;2.38;;;;;;;12.93;100.00;101801.53;5080298;28;20031;-80
2022/10/27 06:49:58;;;;;;;10.23;2.72;;;;;;;12.98;100.00;101803.94;5080763;28;20027;-80
2022/10/27 06:52:24;;;;;;;7.13;2.75;;;;;;;13.02;100.00;101802.75;5098300;28;20488;-79
2022/10/27 06:54:50;;;;;;;13.60;2.40;;;;;;;13.01;100.00;101796.34;5077605;28;20063;-80
2022/10/27 06:57:15;;;;;;;8.07;2.55;;;;;;;13.12;100.00;101800.16;5056469;28;20035;-80
2022/10/27 06:59:40;;;;;;;11.05;2.85;;;;;;;13.13;100.00;101796.41;5079373;28;20081;-80
2022/10/27 07:02:08;;;;;;;9.68;3.08;;;;;;;13.14;100.00;101789.94;5081265;28;20538;-80
2022/10/27 07:04:33;;;;;;;6.47;2.50;;;;;;;13.19;100.00;101788.59;5096101;28;20123;-81
2022/10/27 07:06:59;;;;;;;11.23;2.63;;;;;;;13.26;100.00;101794.50;5061442;28;20126;-79
2022/10/27 07:09:24;;;;;;;6.57;2.30;;;;;;;13.14;100.00;101768.81;5059547;28;20055;-81
2022/10/27 07:11:50;;;;;;;6.43;2.55;;;;;;;13.28;100.00;101788.88;5055000;28;20394;-79
2022/10/27 07:14:15;;;;;;;14.40;2.25;;;;;;;13.39;100.00;101791.72;5071807;28;20567;-79
2022/10/27 07:16:40;;;;;;;4.55;2.20;;;;;;;13.50;100.00;101790.94;5093445;28;20040;-78
2022/10/27 07:19:06;;;;;;;16.98;2.45;;;;;;;13.58;100.00;101785.72;5094950;28;20027;-78
2022/10/27 07:21:31;;;;;;;10.85;2.80;;;;;;;13.60;100.00;101783.72;5084640;28;20500;-79
2022/10/27 07:23:57;;;;;;;6.80;2.15;;;;;;;13.78;100.00;101786.91;5076586;28;20428;-79
2022/10/27 07:26:23;;;;;;;6.00;2.13;;;;;;;13.86;100.00;101791.84;5088160;28;20031;-79
2022/10/27 07:28:48;;;;;;;8.25;2.05;;;;;;;13.95;100.00;101797.50;5070550;28;20040;-79
2022/10/27 07:31:14;;;;;;;7.68;2.35;;;;;;;14.05;100.00;101792.16;5112846;28;20031;-78
2022/10/27 07:33:39;;;;;;;8.85;2.63;;;;;;;14.06;100.00;101798.53;5096937;28;20031;-78
2022/10/27 07:36:05;;;;;;;10.95;2.03;;;;;;;14.13;100.00;101791.50;5114010;28;20034;-78
2022/10/27 07:38:31;;;;;;;7.10;2.53;;;;;;;14.01;100.00;101793.38;5076023;28;20054;-79
2022/10/27 07:40:56;;;;;;;8.30;2.08;;;;;;;14.15;100.00;101795.06;5072046;28;20101;-79
2022/10/27 07:43:22;;;;;;;7.22;1.92;;;;;;;14.37;100.00;101801.59;5095384;28;20031;-79
2022/10/27 07:45:47;;;;;;;11.95;1.80;;;;;;;14.41;100.00;101803.97;5093289;28;20437;-79
2022/10/27 07:48:15;;;;;;;4.35;1.63;;;;;;;14.57;100.00;101814.63;5063765;28;20040;-79
2022/10/27 07:50:42;;;;;;;2.50;1.30;;;;;;;14.79;100.00;101800.03;5095041;28;20028;-79
2022/10/27 07:53:08;;;;;;;7.20;1.92;;;;;;;14.92;100.00;101807.28;5097075;28;20040;-78
2022/10/27 07:55:35;;;;;;;7.13;1.38;;;;;;;15.01;100.00;101812.03;5069413;28;20071;-79
2022/10/27 07:58:19;;;;;;;8.98;1.77;;;;;;;15.20;100.00;101809.50;5093450;28;20137;-78
2022/10/27 08:00:46;;;;;;;3.17;1.40;;;;;;;15.21;100.00;101811.25;5067494;28;20024;-79
2022/10/27 08:03:22;;;;;;;10.35;1.58;;;;;;;15.30;100.00;101812.38;5098398;28;20044;-78
2022/10/27 08:05:48;;;;;;;9.60;1.92;;;;;;;15.35;100.00;101804.59;5078396;28;20451;-79
2022/10/27 08:08:14;;;;;;;5.55;1.45;;;;;;;15.33;100.00;101806.59;5094616;28;20055;-79
2022/10/27 08:10:41;;;;;;;5.55;1.20;;;;;;;15.59;100.00;101800.72;5076724;28;20434;-78
2022/10/27 08:13:08;;;;;;;7.50;1.73;;;;;;;15.91;100.00;101800.75;5112444;28;20054;-79
2022/10/27 08:15:34;;;;;;;6.97;1.33;;;;;;;16.09;100.00;101803.81;5093783;28;20031;-79
2022/10/27 08:18:02;;;;;;;25.23;1.55;;;;;;;16.40;100.00;101809.41;5097132;28;20024;-79
2022/10/27 08:20:31;;;;;;;7.80;1.60;;;;;;;16.35;100.00;101811.69;5113999;28;20035;-79
2022/10/27 08:23:17;;;;;;;7.28;1.42;;;;;;;16.35;100.00;101808.94;5096826;28;20053;-78
2022/10/27 08:25:44;;;;;;;7.97;1.50;;;;;;;16.31;100.00;101818.50;5096053;28;20403;-79
2022/10/27 08:28:10;;;;;;;3.50;1.15;;;;;;;16.28;100.00;101814.13;5098029;28;20074;-79
2022/10/27 08:30:36;;;;;;;9.05;1.83;;;;;;;16.40;100.00;101814.94;5099111;28;20039;-79
2022/10/27 08:33:03;;;;;;;8.38;1.83;;;;;;;16.63;100.00;101810.09;5081574;28;20582;-79
2022/10/27 08:35:30;;;;;;;5.32;1.30;;;;;;;16.71;100.00;101810.28;5095200;28;20119;-79
2022/10/27 08:38:09;;;;;;;5.40;1.25;;;;;;;16.68;100.00;101809.69;5081738;28;20042;-79
2022/10/27 08:40:43;;;;;;;7.03;1.67;;;;;;;16.99;100.00;101806.97;5112236;28;20035;-79
2022/10/27 08:43:11;;;;;;;4.30;1.10;;;;;;;17.39;100.00;101812.44;5112783;28;20118;-79
2022/10/27 08:45:52;;;;;;;7.28;1.08;;;;;;;17.78;100.00;101806.09;5080996;28;20032;-79
2022/10/27 08:48:24;;;;;;;3.42;0.98;;;;;;;17.99;100.00;101800.44;5116661;28;20039;-79
2022/10/27 08:50:50;;;;;;;5.25;0.70;;;;;;;17.96;100.00;101796.03;5115851;28;20023;-79
2022/10/27 08:53:25;;;;;;;5.53;1.17;;;;;;;18.17;100.00;101792.25;5099307;28;20054;-79
2022/10/27 08:55:56;;;;;;;3.65;1.10;;;;;;;18.01;100.00;101790.06;5115699;28;20411;-79
2022/10/27 08:58:34;;;;;;;3.08;1.20;;;;;;;18.46;100.00;101794.97;5097220;28;20114;-79
2022/10/27 09:01:03;;;;;;;9.15;1.50;;;;;;;18.24;100.00;101792.53;5118200;28;20364;-80
2022/10/27 09:03:47;;;;;;;5.10;1.00;;;;;;;18.38;100.00;101794.78;5110540;28;20065;-80
2022/10/27 09:06:28;;;;;;;3.22;0.80;;;;;;;18.23;100.00;101780.53;5094877;28;20039;-80
2022/10/27 09:09:15;;;;;;;4.57;1.10;;;;;;;18.27;100.00;101772.81;5077357;28;20488;-80
2022/10/27 09:12:15;;;;;;;5.28;0.98;;;;;;;18.10;100.00;101775.31;5068858;28;20044;-80
2022/10/27 09:15:15;;;;;;;6.25;1.00;;;;;;;17.94;100.00;101783.38;5079036;28;20438;-79
2022/10/27 09:17:46;;;;;;;9.75;1.20;;;;;;;18.23;100.00;101768.56;5092928;28;20093;-80
2022/10/27 09:20:27;;;;;;;7.15;0.90;;;;;;;18.34;100.00;101769.28;5110815;28;20104;-80
2022/10/27 09:22:57;;;;;;;5.40;0.90;;;;;;;18.71;100.00;101764.78;5096180;28;20484;-80
2022/10/27 09:25:23;;;;;;;4.90;0.90;;;;;;;18.76;100.00;101753.22;5096858;28;20024;-80
2022/10/27 09:27:53;;;;;;;10.32;1.08;;;;;;;18.67;100.00;101750.31;5078772;28;20032;-79
2022/10/27 09:30:18;;;;;;;5.03;1.00;;;;;;;18.59;100.00;101744.66;5094241;28;20126;-80
2022/10/27 09:32:58;;;;;;;5.90;1.05;;;;;;;18.64;100.00;101742.31;5095828;28;20044;-78
2022/10/27 09:35:27;;;;;;;7.07;1.00;;;;;;;18.99;100.00;101748.16;5080060;28;20101;-77
2022/10/27 09:37:55;;;;;;;6.80;0.95;;;;;;;18.81;100.00;101748.09;5080762;28;20457;-77
2022/10/27 09:40:22;;;;;;;6.07;1.20;;;;;;;18.89;100.00;101738.00;5074572;28;20392;-78
2022/10/27 09:42:54;;;;;;;9.63;0.85;;;;;;;18.79;100.00;101739.94;5093397;28;20359;-78
2022/10/27 09:45:22;;;;;;;4.03;0.82;;;;;;;18.86;100.00;101746.63;5075703;28;20028;-78
2022/10/27 09:47:51;;;;;;;3.40;0.98;;;;;;;18.87;100.00;101736.41;5094143;28;20387;-78
2022/10/27 09:50:21;;;;;;;3.88;0.80;;;;;;;19.01;100.00;101737.78;5077314;28;20024;-77
2022/10/27 09:52:47;;;;;;;4.80;0.77;;;;;;;18.90;100.00;101731.41;5077023;28;20118;-78
2022/10/27 09:55:13;;;;;;;3.20;0.80;;;;;;;18.98;100.00;101743.66;5094648;28;20043;-78
2022/10/27 09:57:41;;;;;;;7.55;1.08;;;;;;;18.86;100.00;101729.13;5074908;28;20068;-77
2022/10/27 10:00:07;;;;;;;2.10;1.00;;;;;;;18.91;100.00;101729.53;5091323;28;20031;-77
2022/10/27 10:02:40;;;;;;;3.58;1.05;;;;;;;19.05;100.00;101722.56;5096743;28;20040;-78
2022/10/27 10:05:29;;;;;;;4.03;0.80;;;;;;;18.93;100.00;101721.91;5095134;28;20020;-78
2022/10/27 10:08:20;;;;;;;4.50;1.13;;;;;;;19.26;100.00;101719.50;5095801;28;20034;-78
2022/10/27 10:10:57;;;;;;;2.30;0.75;;;;;;;19.87;100.00;101709.50;5075764;28;20186;-78
2022/10/27 10:13:24;;;;;;;4.15;0.80;;;;;;;20.20;100.00;101704.16;5098226;28;20043;-78
2022/10/27 10:16:06;;;;;;;4.05;0.90;;;;;;;20.11;100.00;101711.59;5079485;28;20418;-78
2022/10/27 10:18:34;;;;;;;3.38;0.70;;;;;;;19.98;100.00;101711.16;5095008;28;20032;-78
2022/10/27 10:21:11;;;;;;;7.93;0.90;;;;;;;20.23;100.00;101720.50;5076306;28;20042;-78
2022/10/27 10:23:53;;;;;;;10.35;1.02;;;;;;;20.38;100.00;101718.00;5098654;28;20036;-79
2022/10/27 10:26:25;;;;;;;4.70;1.10;;;;;;;20.48;100.00;101718.78;5092459;28;20127;-77
2022/10/27 10:28:54;;;;;;;3.97;0.95;;;;;;;20.32;100.00;101713.97;5090271;28;20031;-77
2022/10/27 10:31:25;;;;;;;4.65;0.93;;;;;;;20.30;100.00;101704.94;5092802;28;20035;-77
2022/10/27 10:33:52;;;;;;;7.35;0.93;;;;;;;20.55;100.00;101702.28;5087344;28;20043;-77
2022/10/27 10:36:28;;;;;;;5.22;1.00;;;;;;;20.56;100.00;101695.66;5092869;28;20036;-77
2022/10/27 10:38:57;;;;;;;4.22;1.10;;;;;;;20.23;100.00;101691.84;5095920;28;20391;-78
2022/10/27 10:41:24;;;;;;;2.00;0.60;;;;;;;19.95;100.00;101704.00;5074838;28;20422;-77
2022/10/27 10:44:13;;;;;;;4.03;1.00;;;;;;;20.00;100.00;101687.72;5079117;28;20039;-77
2022/10/27 10:46:51;;;;;;;6.45;1.45;;;;;;;20.15;100.00;101688.00;5080358;28;20048;-78
2022/10/27 10:49:21;;;;;;;6.70;1.13;;;;;;;20.01;100.00;101685.81;5079395;28;20051;-78
2022/10/27 10:51:51;;;;;;;3.50;0.70;;;;;;;20.22;100.00;101688.19;5096588;28;20028;-78
2022/10/27 10:54:24;;;;;;;2.70;0.90;;;;;;;20.29;100.00;101683.72;5096884;28;20498;-78
2022/10/27 10:56:52;;;;;;;5.30;0.77;;;;;;;20.14;100.00;101690.94;5097236;28;20522;-78
2022/10/27 10:59:21;;;;;;;3.88;0.90;;;;;;;20.31;100.00;101687.19;5095112;28;20114;-78
2022/10/27 11:02:05;;;;;;;5.38;0.98;;;;;;;20.46;100.00;101693.00;5095374;28;20039;-78
2022/10/27 11:04:39;;;;;;;1.35;0.80;;;;;;;20.61;100.00;101678.47;5079971;28;20036;-78
2022/10/27 11:07:25;;;;;;;3.30;0.90;;;;;;;20.30;100.00;101679.00;5074153;28;20024;-78
2022/10/27 11:09:58;;;;;;;4.05;0.85;;;;;;;20.24;100.00;101677.78;5079683;28;20051;-78
2022/10/27 11:12:30;;;;;;;1.67;0.70;;;;;;;20.10;100.00;101670.94;5096419;28;20024;-79
2022/10/27 11:14:59;;;;;;;2.22;0.68;;;;;;;20.14;100.00;101671.47;5078939;28;20122;-78
2022/10/27 11:17:27;;;;;;;4.88;1.13;;;;;;;20.14;100.00;101654.78;5095130;28;20089;-78
2022/10/27 11:19:53;;;;;;;4.38;0.90;;;;;;;19.99;100.00;101663.72;5097623;28;20032;-79
2022/10/27 11:22:20;;;;;;;6.85;1.42;;;;;;;20.22;100.00;101657.59;5096601;28;20081;-78